Time;durP1;ratioP1;P1;durP2;ratioP2;P2;SDS_P1;SDS_P2;PMS_P1;PMS_P2;Temp;Humidity;BMP_temperature;BMP_pressure;BME280_temperature;BME280_humidity;BME280_pressure;Samples;Min_cycle;Max_cycle;Signal;HPM_P1;HPM_P2
2022/07/11 00:02:07;;;;;;;6.13;2.17;;;17.20;99.90;;;;;;5040664;28;20052;-80
2022/07/11 00:04:34;;;;;;;6.13;1.70;;;17.20;99.90;;;;;;5041215;28;20053;-80
2022/07/11 00:07:00;;;;;;;4.22;1.80;;;17.20;99.90;;;;;;5019544;28;20395;-80
2022/07/11 00:09:27;;;;;;;5.57;2.03;;;17.20;99.90;;;;;;5035176;28;20132;-80
2022/07/11 00:11:53;;;;;;;4.05;1.95;;;17.10;99.90;;;;;;5020751;28;20436;-81
2022/07/11 00:14:20;;;;;;;4.47;1.90;;;17.10;99.90;;;;;;5000337;28;20468;-80
2022/07/11 00:16:45;;;;;;;5.75;1.92;;;17.10;99.90;;;;;;5035053;28;20136;-79
2022/07/11 00:19:11;;;;;;;5.68;2.00;;;17.10;99.90;;;;;;4988149;28;20052;-80
2022/07/11 00:21:37;;;;;;;3.97;1.90;;;17.10;99.90;;;;;;5018912;28;20080;-80
2022/07/11 00:24:03;;;;;;;3.92;1.83;;;17.10;99.90;;;;;;5003605;28;20128;-80
2022/07/11 00:26:29;;;;;;;5.28;1.90;;;17.10;99.90;;;;;;5003819;28;20053;-80
2022/07/11 00:28:55;;;;;;;3.47;1.60;;;17.10;99.90;;;;;;4986442;28;20056;-80
2022/07/11 00:31:22;;;;;;;5.18;2.00;;;17.10;99.90;;;;;;5003578;28;20119;-79
2022/07/11 00:33:48;;;;;;;3.63;1.98;;;17.10;99.90;;;;;;5041722;28;20536;-80
2022/07/11 00:36:14;;;;;;;3.45;1.48;;;17.00;99.90;;;;;;5006290;28;20132;-79
2022/07/11 00:38:40;;;;;;;4.70;1.80;;;17.00;99.90;;;;;;5014351;28;20125;-80
2022/07/11 00:41:05;;;;;;;6.18;2.10;;;17.00;99.90;;;;;;5018907;28;20380;-80
2022/07/11 00:43:39;;;;;;;4.22;1.55;;;17.00;99.90;;;;;;5017308;28;20083;-80
2022/07/11 00:46:06;;;;;;;4.57;1.42;;;17.00;99.90;;;;;;5019999;28;20124;-80
2022/07/11 00:48:32;;;;;;;3.22;1.98;;;17.00;99.90;;;;;;5020836;28;20731;-79
2022/07/11 00:51:00;;;;;;;3.20;1.27;;;16.90;99.90;;;;;;4998827;28;20036;-79
2022/07/11 00:53:26;;;;;;;4.10;1.58;;;16.90;99.90;;;;;;5003840;28;20068;-79
2022/07/11 00:55:52;;;;;;;3.67;1.70;;;16.90;99.90;;;;;;5023617;28;20147;-79
2022/07/11 00:58:18;;;;;;;2.65;1.73;;;16.80;99.90;;;;;;5020708;28;20053;-79
2022/07/11 01:00:45;;;;;;;4.82;1.70;;;16.80;99.90;;;;;;5025185;28;20049;-79
2022/07/11 01:03:11;;;;;;;6.57;1.65;;;16.80;99.90;;;;;;5035046;28;20040;-78
2022/07/11 01:05:37;;;;;;;5.90;1.80;;;16.80;99.90;;;;;;5019101;28;20579;-79
2022/07/11 01:08:04;;;;;;;3.65;1.70;;;16.80;99.90;;;;;;5000453;28;20052;-78
2022/07/11 01:10:30;;;;;;;6.68;1.95;;;16.80;99.90;;;;;;5019064;28;20049;-79
2022/07/11 01:12:56;;;;;;;5.50;2.00;;;16.80;99.90;;;;;;4990934;28;20033;-79
2022/07/11 01:15:22;;;;;;;3.50;1.55;;;16.80;99.90;;;;;;5022641;28;20051;-79
2022/07/11 01:17:47;;;;;;;6.22;2.00;;;16.80;99.90;;;;;;5013322;28;20048;-79
2022/07/11 01:20:13;;;;;;;4.05;1.90;;;16.80;99.90;;;;;;5036668;28;20097;-80
2022/07/11 01:22:51;;;;;;;3.97;1.92;;;16.80;99.90;;;;;;5016507;28;20052;-80
2022/07/11 01:25:34;;;;;;;5.18;2.30;;;16.80;99.90;;;;;;5008779;28;20052;-80
2022/07/11 01:28:08;;;;;;;4.00;2.13;;;16.80;99.90;;;;;;5014808;28;20976;-79
2022/07/11 01:30:34;;;;;;;2.70;1.63;;;16.70;99.90;;;;;;5025548;28;20564;-80
2022/07/11 01:33:00;;;;;;;3.47;1.50;;;16.70;99.90;;;;;;5014004;28;20040;-79
2022/07/11 01:35:28;;;;;;;6.72;2.28;;;16.70;99.90;;;;;;5034444;28;20064;-81
2022/07/11 01:37:54;;;;;;;4.35;1.70;;;16.70;99.90;;;;;;5023925;28;20049;-82
2022/07/11 01:40:19;;;;;;;3.30;2.03;;;16.60;99.90;;;;;;5004701;28;20053;-79
2022/07/11 01:42:46;;;;;;;3.05;1.85;;;16.60;99.90;;;;;;5016590;28;20473;-79
2022/07/11 01:45:12;;;;;;;4.25;1.85;;;16.60;99.90;;;;;;5004160;28;20059;-80
2022/07/11 01:47:39;;;;;;;4.25;1.77;;;16.60;99.90;;;;;;5004158;28;20094;-80
2022/07/11 01:50:06;;;;;;;4.88;1.60;;;16.60;99.90;;;;;;5021675;28;20102;-80
2022/07/11 01:52:32;;;;;;;4.28;2.05;;;16.60;99.90;;;;;;5018491;28;20127;-80
2022/07/11 01:54:57;;;;;;;5.28;1.50;;;16.50;99.90;;;;;;5018622;28;20509;-80
2022/07/11 01:57:23;;;;;;;4.05;1.73;;;16.50;99.90;;;;;;5001503;28;20123;-80
2022/07/11 01:59:49;;;;;;;4.35;1.80;;;16.60;99.90;;;;;;5019012;28;20049;-81
2022/07/11 02:02:15;;;;;;;4.68;1.60;;;16.60;99.90;;;;;;5022675;28;20098;-81
2022/07/11 02:04:41;;;;;;;6.25;1.95;;;16.60;99.90;;;;;;5034495;28;20094;-80
2022/07/11 02:07:07;;;;;;;3.65;1.40;;;16.50;99.90;;;;;;5034602;28;20044;-80
2022/07/11 02:09:33;;;;;;;3.30;1.60;;;16.50;99.90;;;;;;5020025;28;20051;-80
2022/07/11 02:11:59;;;;;;;5.47;1.42;;;16.50;99.90;;;;;;5016029;28;20050;-80
2022/07/11 02:14:25;;;;;;;4.03;1.63;;;16.50;99.90;;;;;;5018793;28;20044;-80
2022/07/11 02:16:50;;;;;;;4.45;1.73;;;16.50;99.90;;;;;;5003490;28;20156;-80
2022/07/11 02:19:16;;;;;;;4.20;1.70;;;16.60;99.90;;;;;;5017331;28;20072;-80
2022/07/11 02:21:42;;;;;;;3.35;1.48;;;16.60;99.90;;;;;;5017291;28;20042;-80
2022/07/11 02:24:08;;;;;;;3.65;1.77;;;16.50;99.90;;;;;;5017075;28;20099;-80
2022/07/11 02:26:34;;;;;;;4.57;1.73;;;16.50;99.90;;;;;;5021021;28;20040;-80
2022/07/11 02:29:00;;;;;;;2.67;1.40;;;16.50;99.90;;;;;;5050852;28;20128;-81
2022/07/11 02:31:26;;;;;;;2.97;1.20;;;16.50;99.90;;;;;;5033830;28;20052;-80
2022/07/11 02:33:52;;;;;;;2.15;1.13;;;16.50;99.90;;;;;;5035420;28;20081;-80
2022/07/11 02:36:17;;;;;;;2.55;1.00;;;16.50;99.90;;;;;;5005537;28;20098;-80
2022/07/11 02:38:43;;;;;;;2.72;1.20;;;16.50;99.90;;;;;;5028159;28;20586;-80
2022/07/11 02:41:09;;;;;;;3.63;1.23;;;16.50;99.90;;;;;;5015445;28;20067;-80
2022/07/11 02:43:35;;;;;;;3.03;1.10;;;16.50;99.90;;;;;;5020766;28;20076;-80
2022/07/11 02:46:01;;;;;;;2.75;1.13;;;16.50;99.90;;;;;;5013458;28;20431;-80
2022/07/11 02:48:27;;;;;;;2.50;1.10;;;16.50;99.90;;;;;;5031618;28;20063;-80
2022/07/11 02:50:53;;;;;;;2.03;1.00;;;16.50;99.90;;;;;;5031303;28;20633;-80
2022/07/11 02:53:18;;;;;;;1.92;1.08;;;16.50;99.90;;;;;;5031217;28;20079;-80
2022/07/11 02:55:45;;;;;;;2.97;1.30;;;16.60;99.90;;;;;;5013261;28;20059;-80
2022/07/11 02:58:11;;;;;;;1.52;0.80;;;16.50;99.90;;;;;;5001307;28;20040;-80
2022/07/11 03:00:37;;;;;;;2.05;1.02;;;16.50;99.90;;;;;;5016855;28;20120;-80
2022/07/11 03:03:03;;;;;;;2.20;0.80;;;16.50;99.90;;;;;;5015633;28;20469;-80
2022/07/11 03:05:29;;;;;;;2.08;0.90;;;16.50;99.90;;;;;;5012374;28;20490;-80
2022/07/11 03:07:55;;;;;;;1.77;1.00;;;16.50;99.90;;;;;;5014842;28;20135;-80
2022/07/11 03:10:23;;;;;;;3.00;1.10;;;16.50;99.90;;;;;;5001642;28;20067;-80
2022/07/11 03:12:49;;;;;;;4.05;1.10;;;16.50;99.90;;;;;;5030840;28;20474;-81
2022/07/11 03:15:15;;;;;;;1.80;0.93;;;16.40;99.90;;;;;;4999637;28;20163;-79
2022/07/11 03:17:40;;;;;;;1.80;0.80;;;16.40;99.90;;;;;;5016927;28;20057;-80
2022/07/11 03:20:07;;;;;;;2.95;1.17;;;16.40;99.90;;;;;;5015384;28;20128;-80
2022/07/11 03:22:33;;;;;;;2.72;0.93;;;16.40;99.90;;;;;;5014866;28;20044;-80
2022/07/11 03:25:00;;;;;;;2.55;0.93;;;16.40;99.90;;;;;;5005690;28;20565;-80
2022/07/11 03:27:26;;;;;;;1.75;0.93;;;16.40;99.90;;;;;;5032329;28;20056;-80
2022/07/11 03:29:51;;;;;;;2.35;0.93;;;16.40;99.90;;;;;;4998779;28;20191;-80
2022/07/11 03:32:20;;;;;;;3.03;1.00;;;16.40;99.90;;;;;;5016177;28;20129;-80
2022/07/11 03:37:31;;;;;;;2.92;1.10;;;16.30;99.90;;;;;;5033497;28;20048;-81
2022/07/11 03:39:56;;;;;;;2.42;1.15;;;16.30;99.90;;;;;;5015893;28;20102;-79
2022/07/11 03:42:22;;;;;;;2.75;1.08;;;16.30;99.90;;;;;;5020287;28;20140;-79
2022/07/11 03:44:48;;;;;;;3.90;0.95;;;16.30;99.90;;;;;;4997578;28;20506;-80
2022/07/11 03:47:13;;;;;;;1.27;0.80;;;16.30;99.90;;;;;;4982559;28;20058;-80
2022/07/11 03:49:39;;;;;;;2.08;0.95;;;16.30;99.90;;;;;;5005307;28;20060;-80
2022/07/11 03:52:05;;;;;;;3.10;1.00;;;16.30;99.90;;;;;;5016023;28;20479;-79
2022/07/11 03:54:31;;;;;;;2.42;0.98;;;16.30;99.90;;;;;;5015902;28;20072;-80
2022/07/11 03:56:56;;;;;;;1.90;0.90;;;16.20;99.90;;;;;;4996148;28;20049;-79
2022/07/11 03:59:22;;;;;;;2.00;0.90;;;16.20;99.90;;;;;;4995680;28;20049;-80
2022/07/11 04:01:47;;;;;;;1.33;0.70;;;16.20;99.90;;;;;;5001017;28;20043;-80
2022/07/11 04:04:13;;;;;;;2.05;1.00;;;16.20;99.90;;;;;;4980068;28;20036;-79
2022/07/11 04:06:39;;;;;;;2.92;0.95;;;16.20;99.90;;;;;;5015477;28;20126;-80
2022/07/11 04:09:05;;;;;;;1.48;0.90;;;16.20;99.90;;;;;;5031023;28;21394;-79
2022/07/11 04:11:30;;;;;;;1.75;0.90;;;16.30;99.90;;;;;;5010017;28;20048;-80
2022/07/11 04:13:56;;;;;;;1.67;0.88;;;16.30;99.90;;;;;;4998274;28;20040;-79
2022/07/11 04:16:22;;;;;;;2.10;1.00;;;16.30;99.90;;;;;;5005343;28;20475;-81
2022/07/11 04:18:48;;;;;;;2.90;0.95;;;16.30;99.90;;;;;;5030553;28;20049;-80
2022/07/11 04:21:13;;;;;;;2.95;1.00;;;16.30;99.90;;;;;;4991983;28;20052;-81
2022/07/11 04:23:39;;;;;;;1.92;0.90;;;16.40;99.90;;;;;;5016882;28;20128;-81
2022/07/11 04:26:05;;;;;;;1.75;1.00;;;16.40;99.90;;;;;;4987467;28;20564;-81
2022/07/11 04:28:30;;;;;;;2.60;1.23;;;16.40;99.90;;;;;;5019338;28;20045;-81
2022/07/11 04:30:56;;;;;;;2.03;0.80;;;16.40;99.90;;;;;;5018868;28;20155;-80
2022/07/11 04:33:22;;;;;;;1.55;0.60;;;16.40;99.90;;;;;;5017773;28;20075;-80
2022/07/11 04:35:47;;;;;;;0.63;0.52;;;16.40;99.90;;;;;;5017545;28;20480;-79
2022/07/11 04:38:13;;;;;;;1.67;0.70;;;16.40;99.90;;;;;;5019219;28;20052;-79
2022/07/11 04:40:39;;;;;;;1.65;0.80;;;16.30;99.90;;;;;;5006174;28;20143;-78
2022/07/11 04:43:04;;;;;;;3.63;1.00;;;16.40;99.90;;;;;;5019087;28;20053;-79
2022/07/11 04:45:30;;;;;;;3.25;1.08;;;16.40;99.90;;;;;;5015053;28;20037;-79
2022/07/11 04:47:56;;;;;;;2.40;1.00;;;16.40;99.90;;;;;;5019531;28;20124;-79
2022/07/11 04:50:22;;;;;;;1.58;0.80;;;16.40;99.90;;;;;;5018286;28;20047;-79
2022/07/11 04:52:47;;;;;;;1.10;0.63;;;16.40;99.90;;;;;;5003534;28;20131;-79
2022/07/11 04:55:13;;;;;;;1.15;0.60;;;16.30;99.90;;;;;;5033149;28;20048;-79
2022/07/11 04:57:39;;;;;;;3.13;0.90;;;16.30;99.90;;;;;;5032643;28;20052;-79
2022/07/11 05:00:06;;;;;;;1.67;0.68;;;16.30;99.90;;;;;;4997022;28;20056;-79
2022/07/11 05:02:31;;;;;;;1.45;0.70;;;16.30;99.90;;;;;;5040147;28;20045;-79
2022/07/11 05:04:57;;;;;;;1.10;0.77;;;16.20;99.90;;;;;;4997796;28;20045;-79
2022/07/11 05:07:23;;;;;;;1.88;0.98;;;16.20;99.90;;;;;;4996063;28;20197;-79
2022/07/11 05:09:48;;;;;;;2.20;0.93;;;16.20;99.90;;;;;;5019931;28;20120;-79
2022/07/11 05:12:14;;;;;;;4.18;1.15;;;16.20;99.90;;;;;;5020025;28;20049;-79
2022/07/11 05:14:40;;;;;;;1.80;0.95;;;16.30;99.90;;;;;;5018366;28;20048;-80
2022/07/11 05:17:06;;;;;;;1.50;0.88;;;16.30;99.90;;;;;;4998262;28;20049;-79
2022/07/11 05:19:31;;;;;;;2.20;0.88;;;16.40;99.90;;;;;;5002829;28;20535;-81
2022/07/11 05:21:57;;;;;;;1.55;0.80;;;16.40;99.90;;;;;;5006936;28;20093;-81
2022/07/11 05:24:23;;;;;;;2.22;0.90;;;16.40;99.90;;;;;;5035279;28;20051;-81
2022/07/11 05:26:50;;;;;;;1.90;0.80;;;16.50;99.90;;;;;;4997996;28;20055;-81
2022/07/11 05:29:15;;;;;;;2.35;1.02;;;16.50;99.90;;;;;;5013102;28;20057;-82
2022/07/11 05:31:42;;;;;;;1.08;0.75;;;16.50;99.90;;;;;;4997513;28;20910;-81
2022/07/11 05:34:08;;;;;;;2.35;1.00;;;16.60;99.90;;;;;;5015458;28;20125;-80
2022/07/11 05:36:34;;;;;;;3.95;1.17;;;16.60;99.90;;;;;;5018598;28;20051;-80
2022/07/11 05:38:59;;;;;;;2.15;1.10;;;16.60;99.90;;;;;;5007109;28;20060;-80
2022/07/11 05:41:25;;;;;;;2.03;1.20;;;16.60;99.90;;;;;;5001934;28;20738;-78
2022/07/11 05:43:51;;;;;;;2.92;1.02;;;16.60;99.90;;;;;;5020526;28;20098;-77
2022/07/11 05:46:16;;;;;;;2.10;0.90;;;16.50;99.90;;;;;;5006189;28;20495;-78
2022/07/11 05:48:42;;;;;;;3.03;0.90;;;16.50;99.90;;;;;;4997724;28;20048;-80
2022/07/11 05:51:08;;;;;;;1.50;0.90;;;16.50;99.90;;;;;;5034750;28;20961;-79
2022/07/11 05:53:34;;;;;;;1.73;0.73;;;16.50;99.90;;;;;;4996023;28;20068;-80
2022/07/11 05:55:59;;;;;;;1.20;0.73;;;16.50;99.90;;;;;;5007752;28;20049;-80
2022/07/11 05:58:25;;;;;;;1.58;0.80;;;16.50;99.90;;;;;;5033983;28;20052;-80
2022/07/11 06:00:51;;;;;;;2.15;0.80;;;16.60;99.90;;;;;;5010587;28;20048;-80
2022/07/11 06:03:17;;;;;;;2.72;0.82;;;16.60;99.90;;;;;;4997489;28;20079;-81
2022/07/11 06:05:42;;;;;;;2.05;0.90;;;16.70;99.90;;;;;;5021588;28;20395;-80
2022/07/11 06:10:52;;;;;;;1.48;0.77;;;16.80;99.90;;;;;;5023882;28;20552;-79
2022/07/11 06:13:18;;;;;;;1.10;0.90;;;16.80;99.90;;;;;;4984894;28;20044;-80
2022/07/11 06:15:44;;;;;;;1.35;0.60;;;16.90;99.90;;;;;;4995585;28;20052;-81
2022/07/11 06:18:10;;;;;;;2.05;0.80;;;17.00;99.90;;;;;;5004168;28;20151;-78
2022/07/11 06:20:35;;;;;;;1.65;0.70;;;17.10;99.90;;;;;;5002343;28;20566;-81
2022/07/11 06:23:01;;;;;;;1.15;0.80;;;17.20;99.90;;;;;;5016168;28;20044;-78
2022/07/11 06:25:27;;;;;;;0.88;0.60;;;17.30;99.90;;;;;;5012624;28;20078;-78
2022/07/11 06:27:53;;;;;;;2.25;1.02;;;17.50;99.90;;;;;;4997441;28;20055;-80
2022/07/11 06:30:19;;;;;;;1.98;0.60;;;17.60;99.90;;;;;;5014718;28;20187;-79
2022/07/11 06:32:44;;;;;;;2.38;0.70;;;17.70;99.90;;;;;;4989921;28;20052;-79
2022/07/11 06:35:10;;;;;;;2.00;0.70;;;17.80;99.90;;;;;;5013648;28;20041;-79
2022/07/11 06:37:36;;;;;;;3.17;0.90;;;17.90;99.90;;;;;;5002848;28;20148;-78
2022/07/11 06:40:02;;;;;;;2.10;0.90;;;17.90;99.90;;;;;;5015906;28;20054;-80
2022/07/11 06:42:28;;;;;;;1.98;0.70;;;17.90;99.90;;;;;;5015272;28;20422;-80
2022/07/11 06:44:54;;;;;;;1.00;0.68;;;17.90;99.90;;;;;;5015771;28;20044;-80
2022/07/11 06:47:20;;;;;;;1.05;0.60;;;17.90;99.90;;;;;;5017361;28;20045;-79
2022/07/11 06:49:46;;;;;;;2.83;0.70;;;18.00;99.90;;;;;;5001966;28;21029;-79
2022/07/11 06:52:11;;;;;;;3.53;1.00;;;18.00;99.90;;;;;;5015551;28;20048;-78
2022/07/11 06:54:37;;;;;;;3.08;1.20;;;18.10;99.90;;;;;;5021167;28;20052;-78
2022/07/11 06:57:03;;;;;;;1.38;0.80;;;18.10;99.90;;;;;;5021263;28;20207;-78
2022/07/11 06:59:29;;;;;;;3.00;0.70;;;18.20;99.90;;;;;;5036401;28;20048;-79
2022/07/11 07:01:54;;;;;;;3.65;0.82;;;18.20;99.90;;;;;;5016022;28;20102;-79
2022/07/11 07:04:20;;;;;;;1.42;0.50;;;18.10;99.90;;;;;;4993450;28;20033;-79
2022/07/11 07:06:46;;;;;;;1.73;0.60;;;18.20;99.90;;;;;;4984189;28;20132;-79
2022/07/11 07:09:13;;;;;;;4.75;1.10;;;18.10;99.90;;;;;;5016086;28;20053;-79
2022/07/11 07:11:38;;;;;;;1.83;0.60;;;18.20;99.90;;;;;;4995310;28;20221;-80
2022/07/11 07:14:04;;;;;;;2.63;0.82;;;18.30;99.90;;;;;;5013046;28;20083;-79
2022/07/11 07:16:30;;;;;;;3.90;0.90;;;18.40;99.90;;;;;;5002243;28;20049;-82
2022/07/11 07:18:59;;;;;;;1.38;0.70;;;18.40;99.90;;;;;;5037306;28;20049;-82
2022/07/11 07:21:25;;;;;;;3.67;0.85;;;18.40;99.90;;;;;;4989559;28;20048;-81
2022/07/11 07:23:51;;;;;;;2.80;0.90;;;18.40;99.90;;;;;;5012264;28;20041;-83
2022/07/11 07:26:17;;;;;;;2.22;0.60;;;18.30;99.90;;;;;;5010424;28;20514;-81
2022/07/11 07:28:43;;;;;;;3.42;1.27;;;18.30;99.90;;;;;;5001502;28;20458;-82
2022/07/11 07:31:11;;;;;;;2.92;0.82;;;18.30;99.90;;;;;;5021426;28;20376;-81
2022/07/11 07:33:37;;;;;;;1.63;0.70;;;18.50;99.90;;;;;;4990048;28;20047;-81
2022/07/11 07:36:03;;;;;;;1.75;0.68;;;18.60;99.90;;;;;;5018302;28;20056;-81
2022/07/11 07:38:28;;;;;;;2.60;1.27;;;18.70;99.90;;;;;;5021926;28;20044;-81
2022/07/11 07:40:54;;;;;;;1.45;0.50;;;18.70;99.90;;;;;;5016110;28;20106;-82
2022/07/11 07:43:20;;;;;;;0.52;0.40;;;18.70;99.90;;;;;;5010327;28;20075;-82
2022/07/11 07:45:47;;;;;;;0.95;0.85;;;18.60;99.90;;;;;;5036970;28;20033;-81
2022/07/11 07:48:12;;;;;;;0.70;0.40;;;18.60;99.90;;;;;;5017286;28;20118;-81
2022/07/11 07:50:38;;;;;;;0.77;0.50;;;18.60;99.90;;;;;;5018989;28;20052;-81
2022/07/11 07:53:04;;;;;;;0.52;0.38;;;18.60;99.90;;;;;;5011525;28;20450;-82
2022/07/11 07:55:30;;;;;;;0.98;0.50;;;18.60;99.90;;;;;;5006660;28;20041;-82
2022/07/11 07:57:56;;;;;;;1.08;0.57;;;18.60;99.90;;;;;;5037857;28;20052;-82
2022/07/11 08:03:10;;;;;;;2.30;0.80;;;18.50;99.90;;;;;;5040196;28;20080;-82
2022/07/11 08:05:36;;;;;;;3.15;0.85;;;18.50;99.90;;;;;;5047526;28;20040;-81
2022/07/11 08:08:03;;;;;;;0.88;0.35;;;18.60;99.90;;;;;;5041123;28;20041;-81
2022/07/11 08:10:29;;;;;;;1.05;0.38;;;18.60;99.90;;;;;;5005887;28;20052;-81
2022/07/11 08:12:55;;;;;;;1.48;0.50;;;18.70;99.90;;;;;;5020961;28;20533;-83
2022/07/11 08:15:21;;;;;;;0.60;0.40;;;18.90;99.90;;;;;;5004836;28;20056;-82
2022/07/11 08:17:46;;;;;;;1.40;0.35;;;19.00;99.90;;;;;;5041261;28;20033;-81
2022/07/11 08:20:12;;;;;;;0.75;0.50;;;19.10;99.90;;;;;;5021610;28;20127;-82
2022/07/11 08:22:38;;;;;;;0.82;0.52;;;19.30;99.90;;;;;;5004767;28;20075;-82
2022/07/11 08:25:04;;;;;;;1.73;0.60;;;19.50;99.90;;;;;;5038607;28;20823;-82
2022/07/11 08:27:30;;;;;;;2.05;0.57;;;19.50;99.90;;;;;;5008880;28;20122;-80
2022/07/11 08:29:56;;;;;;;0.90;0.60;;;19.50;99.90;;;;;;5021285;28;20048;-80
2022/07/11 08:32:21;;;;;;;1.30;0.65;;;19.40;99.90;;;;;;5003843;28;20045;-79
2022/07/11 08:34:47;;;;;;;1.15;0.50;;;19.40;99.90;;;;;;5007686;28;20053;-80
2022/07/11 08:37:13;;;;;;;1.15;0.60;;;19.40;99.90;;;;;;5007578;28;20056;-81
2022/07/11 08:39:39;;;;;;;2.75;0.65;;;19.40;99.90;;;;;;5021427;28;20052;-80
2022/07/11 08:42:08;;;;;;;2.03;1.10;;;19.40;99.90;;;;;;5011110;28;20049;-79
2022/07/11 08:44:35;;;;;;;2.92;0.90;;;19.40;99.90;;;;;;5039911;28;20056;-79
2022/07/11 08:47:01;;;;;;;3.50;1.20;;;19.50;99.90;;;;;;5023130;28;20052;-81
2022/07/11 08:49:28;;;;;;;2.42;1.05;;;19.60;99.90;;;;;;5023495;28;20148;-80
2022/07/11 08:51:54;;;;;;;3.17;0.88;;;19.60;99.90;;;;;;5012126;28;20056;-79
2022/07/11 08:54:19;;;;;;;4.60;0.93;;;19.70;99.90;;;;;;5038574;28;20063;-80
2022/07/11 08:56:46;;;;;;;1.48;0.80;;;20.00;99.90;;;;;;5019567;28;20448;-81
2022/07/11 08:59:17;;;;;;;1.88;0.50;;;20.30;99.90;;;;;;5019678;28;20048;-81
2022/07/11 09:01:45;;;;;;;0.77;0.50;;;20.70;99.90;;;;;;5034438;28;20051;-80
2022/07/11 09:04:13;;;;;;;1.17;0.50;;;21.10;99.90;;;;;;5052064;28;20128;-79
2022/07/11 09:06:39;;;;;;;1.25;0.50;;;21.40;99.90;;;;;;5014623;28;20636;-79
2022/07/11 09:09:05;;;;;;;2.45;0.93;;;21.50;99.90;;;;;;5007251;28;20083;-78
2022/07/11 09:11:54;;;;;;;3.40;0.98;;;21.50;99.90;;;;;;5014839;28;20127;-79
2022/07/11 09:14:24;;;;;;;1.85;0.70;;;21.30;99.90;;;;;;5008222;28;20044;-83
2022/07/11 09:16:54;;;;;;;0.98;0.50;;;21.20;99.90;;;;;;5006803;28;20060;-78
2022/07/11 09:19:25;;;;;;;2.95;0.70;;;21.20;99.90;;;;;;4996175;28;20055;-79
2022/07/11 09:28:06;;;;;;;1.95;0.90;;;21.00;99.90;;;;;;5034246;28;20398;-78
2022/07/11 09:30:39;;;;;;;2.05;0.70;;;21.10;99.90;;;;;;5025181;28;20052;-76
2022/07/11 09:33:12;;;;;;;2.53;0.95;;;21.10;99.90;;;;;;5028045;28;20135;-79
2022/07/11 09:35:45;;;;;;;1.20;0.70;;;21.20;99.90;;;;;;5035774;28;20041;-79
2022/07/11 09:38:16;;;;;;;1.77;0.70;;;21.20;99.90;;;;;;5022471;28;20052;-79
2022/07/11 09:40:47;;;;;;;1.08;0.40;;;21.30;99.90;;;;;;5020537;28;20044;-78
2022/07/11 09:43:13;;;;;;;1.35;0.60;;;21.40;99.90;;;;;;5001836;28;20217;-79
2022/07/11 09:45:39;;;;;;;2.80;0.57;;;21.40;99.90;;;;;;5040921;28;20048;-79
2022/07/11 09:48:11;;;;;;;1.00;0.63;;;21.40;99.90;;;;;;5020342;28;20056;-79
2022/07/11 09:50:39;;;;;;;0.85;0.52;;;21.40;99.90;;;;;;5033170;28;22006;-80
2022/07/11 09:53:06;;;;;;;1.33;0.60;;;21.20;99.90;;;;;;5020807;28;20668;-80
2022/07/11 09:55:34;;;;;;;1.10;0.60;;;21.20;99.90;;;;;;5032810;28;20149;-79
2022/07/11 09:58:06;;;;;;;1.77;0.60;;;21.20;99.90;;;;;;5035096;28;20103;-80
2022/07/11 10:00:33;;;;;;;0.52;0.43;;;21.10;99.90;;;;;;5029563;28;20074;-80
2022/07/11 10:03:00;;;;;;;0.75;0.47;;;21.20;99.90;;;;;;5033042;28;20044;-79
2022/07/11 10:05:26;;;;;;;0.52;0.47;;;21.20;99.90;;;;;;4996414;28;20457;-81
2022/07/11 10:07:52;;;;;;;1.27;0.43;;;21.20;99.90;;;;;;5005413;28;20048;-80
2022/07/11 10:10:18;;;;;;;0.50;0.50;;;21.20;99.90;;;;;;4998115;28;20051;-79
2022/07/11 10:12:46;;;;;;;0.60;0.40;;;21.30;99.90;;;;;;5027686;28;20632;-80
2022/07/11 10:15:14;;;;;;;0.57;0.40;;;21.30;99.90;;;;;;5007320;28;20052;-80
2022/07/11 10:17:53;;;;;;;0.65;0.40;;;21.30;99.90;;;;;;5029051;28;20049;-81
2022/07/11 10:20:34;;;;;;;1.58;0.50;;;21.30;99.90;;;;;;5036700;28;20123;-82
2022/07/11 10:23:18;;;;;;;0.38;0.35;;;21.40;99.90;;;;;;5027419;28;20506;-83
2022/07/11 10:26:06;;;;;;;1.05;0.60;;;21.50;99.90;;;;;;5038188;28;20040;-81
2022/07/11 10:28:55;;;;;;;1.40;0.50;;;21.50;99.90;;;;;;5037561;28;20116;-82
2022/07/11 10:31:23;;;;;;;0.68;0.40;;;21.50;99.90;;;;;;5020943;28;20067;-81
2022/07/11 10:34:05;;;;;;;0.30;0.30;;;21.60;99.90;;;;;;5037681;28;20048;-81
2022/07/11 10:36:33;;;;;;;1.00;0.47;;;21.60;99.90;;;;;;4999065;28;20044;-79
2022/07/11 10:39:27;;;;;;;0.30;0.20;;;21.80;99.90;;;;;;5022485;28;20380;-80
2022/07/11 10:41:57;;;;;;;0.50;0.50;;;21.90;99.90;;;;;;5009302;28;20060;-80
2022/07/11 10:44:24;;;;;;;1.95;0.85;;;22.00;99.90;;;;;;5028551;28;20098;-80
2022/07/11 10:46:49;;;;;;;0.43;0.43;;;22.00;99.90;;;;;;5032637;28;20056;-80
2022/07/11 10:49:38;;;;;;;1.13;0.40;;;22.00;99.90;;;;;;4983830;28;20499;-80
2022/07/11 10:52:06;;;;;;;0.50;0.30;;;22.00;99.90;;;;;;5022373;28;20950;-78
2022/07/11 10:54:35;;;;;;;0.75;0.40;;;22.10;99.90;;;;;;5029350;28;20053;-79
2022/07/11 10:57:03;;;;;;;0.93;0.40;;;22.00;99.90;;;;;;5041014;28;20041;-79
2022/07/11 10:59:29;;;;;;;0.30;0.30;;;22.00;99.90;;;;;;5029703;28;20274;-79
2022/07/11 11:02:10;;;;;;;0.38;0.38;;;21.80;99.90;;;;;;5024167;28;20052;-79
2022/07/11 11:04:58;;;;;;;2.83;1.38;;;21.70;99.90;;;;;;5035831;28;20177;-80
2022/07/11 11:07:43;;;;;;;0.80;0.40;;;21.60;99.90;;;;;;5031147;28;20074;-79
2022/07/11 11:10:18;;;;;;;0.93;0.50;;;21.70;99.90;;;;;;5024815;28;20059;-80
2022/07/11 11:13:09;;;;;;;0.70;0.60;;;21.70;99.90;;;;;;5023600;28;20434;-79
2022/07/11 11:15:41;;;;;;;0.73;0.40;;;21.80;99.90;;;;;;5031566;28;20159;-78
2022/07/11 11:18:22;;;;;;;1.80;0.50;;;21.70;99.90;;;;;;5024801;28;20054;-79
2022/07/11 11:21:00;;;;;;;1.23;0.50;;;21.70;99.90;;;;;;5040127;28;20404;-79
2022/07/11 11:23:32;;;;;;;1.75;0.70;;;21.80;99.90;;;;;;5021899;28;20098;-79
2022/07/11 11:26:08;;;;;;;1.48;0.80;;;21.90;99.90;;;;;;5031072;28;20049;-78
2022/07/11 11:28:34;;;;;;;2.13;1.00;;;22.00;99.90;;;;;;5040324;28;20044;-78
2022/07/11 11:31:06;;;;;;;1.13;0.75;;;22.20;99.90;;;;;;5023605;28;20526;-78
2022/07/11 11:33:34;;;;;;;1.38;0.65;;;22.30;99.90;;;;;;5024357;28;20494;-79
2022/07/11 11:36:10;;;;;;;0.82;0.60;;;22.40;99.90;;;;;;5033290;28;20865;-78
2022/07/11 11:38:36;;;;;;;;;;;22.50;99.90;;;;;;5053017;28;20077;-79
2022/07/11 11:41:05;;;;;;;1.92;0.70;;;22.50;99.90;;;;;;5042687;28;19975;-79
2022/07/11 11:43:31;;;;;;;1.00;0.80;;;22.40;99.90;;;;;;5011878;28;20128;-78
2022/07/11 11:45:57;;;;;;;1.65;0.88;;;22.40;99.90;;;;;;5012678;28;20049;-78
2022/07/11 11:48:29;;;;;;;2.25;0.88;;;22.40;99.90;;;;;;5010470;28;20098;-79
2022/07/11 11:51:05;;;;;;;1.45;0.90;;;22.30;99.90;;;;;;5042368;28;20128;-79
2022/07/11 11:53:51;;;;;;;3.63;1.58;;;22.20;99.90;;;;;;5028185;28;20044;-79
2022/07/11 11:56:32;;;;;;;;;;;22.20;99.90;;;;;;5043981;28;20044;-79
2022/07/11 11:59:12;;;;;;;1.80;0.90;;;22.10;99.90;;;;;;5026593;28;20014;-79
2022/07/11 12:01:43;;;;;;;3.83;0.95;;;22.00;99.90;;;;;;5027146;28;20052;-79
2022/07/11 12:04:11;;;;;;;2.47;0.90;;;21.70;99.90;;;;;;5041089;28;20400;-80
2022/07/11 12:06:40;;;;;;;1.42;0.90;;;21.60;99.90;;;;;;5034450;28;20049;-80
2022/07/11 12:09:11;;;;;;;1.55;0.90;;;21.60;99.90;;;;;;5044956;28;20055;-79
2022/07/11 12:11:41;;;;;;;1.08;0.70;;;21.70;99.90;;;;;;5027423;28;20372;-79
2022/07/11 12:14:09;;;;;;;2.22;0.80;;;21.80;99.90;;;;;;5009329;28;20045;-79
2022/07/11 12:16:41;;;;;;;1.48;0.70;;;21.80;99.90;;;;;;5026724;28;20086;-79
2022/07/11 12:19:09;;;;;;;3.20;1.00;;;21.80;99.90;;;;;;5026704;28;20053;-79
2022/07/11 12:21:36;;;;;;;1.77;0.90;;;21.90;99.90;;;;;;5025626;28;20547;-80
2022/07/11 12:24:04;;;;;;;2.13;1.08;;;21.90;99.90;;;;;;5032358;28;20045;-84
2022/07/11 12:26:35;;;;;;;2.20;0.88;;;21.80;99.90;;;;;;5034584;28;20541;-82
2022/07/11 12:29:16;;;;;;;1.65;0.80;;;21.70;99.90;;;;;;5042410;28;20389;-81
2022/07/11 12:31:48;;;;;;;1.38;0.85;;;21.50;99.90;;;;;;5026426;28;20049;-83
2022/07/11 12:34:40;;;;;;;2.45;1.00;;;21.70;99.90;;;;;;5032976;28;20441;-81
2022/07/11 12:37:18;;;;;;;2.35;0.90;;;21.70;99.90;;;;;;5043087;28;20068;-80
2022/07/11 12:39:52;;;;;;;2.67;0.85;;;21.60;99.90;;;;;;5043405;28;20115;-80
2022/07/11 12:42:28;;;;;;;0.80;0.65;;;21.60;99.90;;;;;;5042943;28;20084;-80
2022/07/11 12:45:09;;;;;;;1.85;0.90;;;21.80;99.90;;;;;;5024446;28;20048;-81
2022/07/11 12:47:42;;;;;;;2.25;1.10;;;21.90;99.90;;;;;;5025684;28;20060;-81
2022/07/11 12:50:16;;;;;;;1.20;0.70;;;22.10;99.90;;;;;;5027839;28;20071;-80
2022/07/11 12:52:47;;;;;;;2.53;0.80;;;22.10;99.90;;;;;;5009102;28;20041;-80
2022/07/11 12:55:34;;;;;;;2.05;1.20;;;22.10;99.90;;;;;;5027619;28;20057;-81
2022/07/11 12:58:06;;;;;;;2.10;1.00;;;21.90;99.90;;;;;;5034077;28;20041;-81
2022/07/11 13:00:36;;;;;;;3.17;0.98;;;21.90;99.90;;;;;;5025103;28;20052;-80
2022/07/11 13:03:02;;;;;;;3.92;0.90;;;21.60;99.90;;;;;;5025366;28;20075;-80
2022/07/11 13:05:28;;;;;;;3.17;1.20;;;21.80;99.90;;;;;;5042197;28;20070;-80
2022/07/11 13:10:50;;;;;;;2.33;0.90;;;21.90;99.90;;;;;;5026057;28;20499;-82